createdAt,value
2019-02-16T00:01:23.382Z,33.23
2019-02-16T00:03:53.753Z,26.87
2019-02-16T00:06:24.122Z,32.33
2019-02-16T00:08:54.790Z,33.10
2019-02-16T00:11:25.146Z,32.80
2019-02-16T00:13:55.481Z,34.17
2019-02-16T00:16:25.949Z,32.67
2019-02-16T00:18:56.352Z,32.90
2019-02-16T00:21:26.781Z,31.70
2019-02-16T00:23:57.437Z,31.33
2019-02-16T00:26:27.773Z,34.57
2019-02-16T00:28:59.199Z,31.87
2019-02-16T00:31:29.533Z,33.30
2019-02-16T00:33:59.893Z,31.70
2019-02-16T00:36:30.225Z,32.97
2019-02-16T00:39:00.583Z,40.17
2019-02-16T00:41:30.985Z,32.33
2019-02-16T00:44:01.340Z,34.80
2019-02-16T00:46:31.681Z,33.73
2019-02-16T00:49:02.151Z,30.13
2019-02-16T00:51:32.478Z,30.20
2019-02-16T00:54:02.850Z,31.23
2019-02-16T00:56:33.181Z,32.90
2019-02-16T00:59:03.533Z,32.33
2019-02-16T01:01:33.897Z,30.97
2019-02-16T01:04:04.357Z,34.67
2019-02-16T01:06:34.685Z,31.53
2019-02-16T01:09:06.797Z,30.37
2019-02-16T01:11:37.305Z,34.80
2019-02-16T01:14:07.762Z,32.00
2019-02-16T01:16:38.093Z,33.53
2019-02-16T01:19:08.765Z,32.20
2019-02-16T01:21:39.102Z,30.70
2019-02-16T01:24:09.500Z,33.03
2019-02-16T01:26:39.821Z,32.60
2019-02-16T01:29:10.494Z,35.27
2019-02-16T01:31:40.829Z,32.83
2019-02-16T01:34:11.186Z,31.00
2019-02-16T01:36:41.509Z,35.33
2019-02-16T01:39:12.965Z,35.73
2019-02-16T01:41:43.289Z,33.60
2019-02-16T01:44:13.645Z,38.93
2019-02-16T01:46:44.008Z,43.17
2019-02-16T01:49:14.342Z,34.80
2019-02-16T01:51:44.698Z,38.43
2019-02-16T01:54:15.901Z,37.47
2019-02-16T01:56:46.265Z,38.87
2019-02-16T01:59:16.593Z,35.47
2019-02-16T02:01:47.026Z,36.00
2019-02-16T02:04:17.357Z,41.70
2019-02-16T02:06:47.722Z,36.03
2019-02-16T02:09:18.386Z,38.00
2019-02-16T02:11:48.713Z,36.87
2019-02-16T02:14:19.080Z,40.77
2019-02-16T02:16:49.461Z,37.50
2019-02-16T02:19:19.874Z,39.87
2019-02-16T02:21:50.201Z,35.33
2019-02-16T02:24:20.645Z,40.00
2019-02-16T02:26:52.053Z,35.70
2019-02-16T02:29:22.429Z,42.43
2019-02-16T02:31:52.770Z,36.20
2019-02-16T02:34:23.117Z,41.97
2019-02-16T02:36:53.445Z,37.00
2019-02-16T02:39:23.803Z,39.73
2019-02-16T02:41:54.161Z,38.53
2019-02-16T02:44:24.516Z,41.17
2019-02-16T02:46:54.869Z,41.50
2019-02-16T02:49:25.215Z,40.47
2019-02-16T02:51:55.542Z,36.10
2019-02-16T02:54:25.895Z,38.67
2019-02-16T02:56:56.265Z,40.10
2019-02-16T02:59:26.602Z,39.67
2019-02-16T03:01:56.970Z,41.03
2019-02-16T03:04:27.305Z,41.20
2019-02-16T03:06:57.673Z,40.27
2019-02-16T03:09:28.025Z,41.17
2019-02-16T03:11:58.388Z,45.50
2019-02-16T03:14:28.754Z,42.77
2019-02-16T03:16:59.092Z,40.33
2019-02-16T03:19:29.616Z,44.20
2019-02-16T03:22:02.757Z,45.23
2019-02-16T03:24:43.842Z,43.70
2019-02-16T03:27:42.050Z,40.53
2019-02-16T03:30:57.672Z,38.93
2019-02-16T03:33:58.589Z,44.93
2019-02-16T03:36:51.226Z,41.53
2019-02-16T03:39:42.862Z,38.77
2019-02-16T03:42:13.225Z,42.20
2019-02-16T03:44:43.569Z,33.87
2019-02-16T03:47:13.942Z,45.20
2019-02-16T03:49:44.284Z,41.30
2019-02-16T03:52:14.651Z,40.37
2019-02-16T03:54:45.015Z,36.97
2019-02-16T03:57:15.381Z,42.10
2019-02-16T03:59:45.732Z,41.37
2019-02-16T04:02:16.125Z,47.83
2019-02-16T04:04:46.497Z,40.13
2019-02-16T04:07:16.879Z,44.03
2019-02-16T04:09:47.225Z,41.50
2019-02-16T04:12:17.592Z,42.13
2019-02-16T04:14:48.082Z,41.20
2019-02-16T04:17:18.412Z,40.90
2019-02-16T04:19:48.824Z,39.53
2019-02-16T04:22:24.714Z,42.70
2019-02-16T04:24:52.597Z,41.13
2019-02-16T04:27:24.012Z,42.27
2019-02-16T04:29:54.383Z,43.27
2019-02-16T04:32:24.713Z,46.83
2019-02-16T04:34:55.091Z,44.70
2019-02-16T04:37:25.425Z,43.13
2019-02-16T04:39:55.801Z,43.53
2019-02-16T04:42:26.375Z,45.90
2019-02-16T04:44:56.729Z,50.27
2019-02-16T04:47:27.086Z,46.27
2019-02-16T04:49:57.418Z,48.17
2019-02-16T04:52:34.320Z,42.30
2019-02-16T04:54:59.830Z,43.33
2019-02-16T04:57:30.417Z,52.10
2019-02-16T05:00:00.753Z,46.37
2019-02-16T05:02:31.136Z,46.67
2019-02-16T05:05:01.477Z,52.80
2019-02-16T05:07:31.860Z,46.83
2019-02-16T05:10:02.206Z,49.33
2019-02-16T05:12:32.570Z,51.13
2019-02-16T05:15:02.926Z,53.80
2019-02-16T05:17:33.386Z,52.73
2019-02-16T05:20:04.677Z,53.30
2019-02-16T05:22:43.855Z,49.53
2019-02-16T05:25:07.010Z,56.97
2019-02-16T05:27:37.341Z,54.43
2019-02-16T05:30:07.784Z,51.23
2019-02-16T05:32:38.117Z,52.27
2019-02-16T05:35:08.513Z,52.13
2019-02-16T05:37:38.846Z,52.17
2019-02-16T05:40:09.420Z,55.53
2019-02-16T05:42:39.762Z,55.90
2019-02-16T05:45:10.244Z,53.33
2019-02-16T05:47:40.569Z,48.33
2019-02-16T05:50:10.941Z,49.07
2019-02-16T05:52:41.274Z,49.87
2019-02-16T05:55:11.646Z,51.30
2019-02-16T05:57:42.002Z,55.67
2019-02-16T06:00:13.548Z,58.00
2019-02-16T06:02:43.886Z,58.73
2019-02-16T06:05:15.335Z,56.90
2019-02-16T06:07:45.673Z,56.70
2019-02-16T06:10:16.137Z,55.77
2019-02-16T06:12:46.469Z,55.03
2019-02-16T06:15:16.857Z,57.67
2019-02-16T06:17:47.197Z,59.33
2019-02-16T06:20:17.565Z,59.00
2019-02-16T06:22:48.149Z,55.47
2019-02-16T06:25:18.604Z,53.27
2019-02-16T06:27:48.924Z,58.67
2019-02-16T06:30:19.378Z,56.47
2019-02-16T06:32:49.719Z,62.03
2019-02-16T06:35:33.877Z,53.83
2019-02-16T06:38:04.217Z,54.17
2019-02-16T06:40:34.584Z,54.30
2019-02-16T06:43:04.919Z,62.67
2019-02-16T06:45:35.293Z,49.40
2019-02-16T06:48:05.630Z,56.27
2019-02-16T06:50:37.193Z,56.37
2019-02-16T06:53:13.277Z,56.90
2019-02-16T06:56:01.524Z,50.20
2019-02-16T06:58:31.934Z,53.60
2019-02-16T07:01:02.325Z,53.53
2019-02-16T07:03:32.662Z,48.13
2019-02-16T07:06:03.141Z,50.97
2019-02-16T07:08:33.481Z,50.60
2019-02-16T07:11:03.929Z,48.00
2019-02-16T07:13:34.277Z,46.33
2019-02-16T07:16:22.478Z,46.43
2019-02-16T07:18:57.929Z,46.90
2019-02-16T07:21:28.317Z,46.87
2019-02-16T07:23:58.658Z,48.67
2019-02-16T07:26:29.117Z,47.13
2019-02-16T07:28:59.462Z,43.13
2019-02-16T07:31:29.830Z,45.73
2019-02-16T07:34:00.169Z,41.67
2019-02-16T07:36:30.560Z,48.60
2019-02-16T07:39:00.941Z,51.23
2019-02-16T07:41:32.397Z,47.77
2019-02-16T07:44:27.486Z,48.60
2019-02-16T07:47:06.975Z,46.90
2019-02-16T07:49:56.575Z,47.60
2019-02-16T07:52:57.961Z,44.67
2019-02-16T07:55:38.844Z,39.47
2019-02-16T07:58:14.221Z,34.17
2019-02-16T08:01:02.119Z,35.77
2019-02-16T08:03:52.657Z,32.27
2019-02-16T08:06:47.973Z,29.97
2019-02-16T08:09:40.414Z,27.73
2019-02-16T08:12:29.708Z,26.07
2019-02-16T08:15:05.317Z,23.43
2019-02-16T08:18:02.454Z,25.77
2019-02-16T08:20:41.945Z,22.50
2019-02-16T08:23:21.738Z,28.20
2019-02-16T08:26:16.964Z,20.13
2019-02-16T08:28:59.257Z,16.30
2019-02-16T08:31:35.545Z,21.33
2019-02-16T08:34:37.218Z,14.87
2019-02-16T08:37:44.907Z,15.67
2019-02-16T08:40:27.493Z,13.33
2019-02-16T08:43:07.287Z,12.33
2019-02-16T08:45:50.161Z,13.60
2019-02-16T08:48:30.436Z,14.10
2019-02-16T08:51:11.905Z,14.33
2019-02-16T08:54:04.066Z,12.27
2019-02-16T08:56:56.401Z,12.50
2019-02-16T08:59:43.739Z,14.37
2019-02-16T09:02:30.517Z,9.93
2019-02-16T09:05:11.137Z,11.03
2019-02-16T09:08:06.397Z,12.53
2019-02-16T09:11:01.913Z,9.83
2019-02-16T09:13:48.209Z,8.80
2019-02-16T09:16:38.383Z,8.43
2019-02-16T09:19:26.049Z,9.77
2019-02-16T09:22:15.363Z,7.47
2019-02-16T09:24:54.537Z,7.60
2019-02-16T09:27:40.584Z,8.27
2019-02-16T09:30:28.469Z,7.57
2019-02-16T09:33:26.903Z,7.97
2019-02-16T09:36:15.463Z,8.63
2019-02-16T09:39:01.125Z,6.00
2019-02-16T09:41:49.436Z,7.37
2019-02-16T09:44:25.313Z,8.50
2019-02-16T09:47:33.638Z,10.87
2019-02-16T09:50:22.297Z,7.57
2019-02-16T09:53:13.265Z,7.97
2019-02-16T09:56:01.449Z,7.57
2019-02-16T09:58:49.785Z,7.03
2019-02-16T10:01:37.646Z,6.50
2019-02-16T10:04:21.893Z,7.00
2019-02-16T10:07:10.547Z,7.30
2019-02-16T10:10:15.214Z,7.43
2019-02-16T10:12:57.389Z,6.80
2019-02-16T10:15:49.066Z,7.47
2019-02-16T10:18:34.493Z,7.77
2019-02-16T10:21:23.814Z,7.30
2019-02-16T10:24:18.010Z,7.10
2019-02-16T10:27:01.549Z,6.63
2019-02-16T10:30:06.189Z,8.23
2019-02-16T10:32:49.109Z,5.60
2019-02-16T10:35:44.628Z,8.17
2019-02-16T10:38:36.679Z,6.47
2019-02-16T10:41:38.256Z,5.90
2019-02-16T10:44:30.293Z,5.23
2019-02-16T10:47:22.529Z,6.70
2019-02-16T10:50:03.137Z,7.10
2019-02-16T10:52:55.605Z,5.70
2019-02-16T10:55:41.365Z,6.20
2019-02-16T10:58:21.966Z,7.40
2019-02-16T11:01:09.864Z,8.87
2019-02-16T11:03:53.769Z,6.20
2019-02-16T11:06:52.129Z,5.67
2019-02-16T11:09:50.309Z,5.53
2019-02-16T11:12:43.753Z,5.73
2019-02-16T11:15:44.465Z,4.57
2019-02-16T11:18:33.742Z,8.97
2019-02-16T11:21:41.339Z,4.93
2019-02-16T11:24:18.117Z,4.40
2019-02-16T11:27:06.405Z,4.50
2019-02-16T11:29:48.708Z,4.67
2019-02-16T11:32:37.365Z,7.63
2019-02-16T11:35:19.790Z,5.13
2019-02-16T11:37:57.669Z,5.77
2019-02-16T11:40:53.001Z,5.90
2019-02-16T11:43:45.169Z,5.73
2019-02-16T11:46:46.785Z,4.87
2019-02-16T11:49:26.636Z,4.43
2019-02-16T11:52:24.937Z,5.50
2019-02-16T11:55:21.549Z,4.90
2019-02-16T11:58:09.494Z,5.20
2019-02-16T12:00:58.897Z,5.43
2019-02-16T12:03:44.257Z,8.60
2019-02-16T12:06:37.417Z,4.50
2019-02-16T12:09:28.234Z,5.83
2019-02-16T12:12:08.975Z,5.53
2019-02-16T12:14:59.451Z,5.97
2019-02-16T12:17:54.705Z,4.87
2019-02-16T12:20:36.849Z,4.50
2019-02-16T12:23:32.188Z,4.20
2019-02-16T12:26:17.345Z,4.20
2019-02-16T12:29:15.810Z,5.40
2019-02-16T12:32:11.759Z,4.43
2019-02-16T12:34:59.997Z,7.23
2019-02-16T12:37:48.449Z,4.57
2019-02-16T12:40:37.749Z,6.23
2019-02-16T12:43:27.021Z,4.03
2019-02-16T12:46:08.705Z,3.73
2019-02-16T12:48:49.553Z,4.83
2019-02-16T12:51:44.929Z,3.47
2019-02-16T12:54:24.393Z,5.00
2019-02-16T12:57:03.149Z,3.77
2019-02-16T13:00:04.525Z,3.73
2019-02-16T13:02:42.713Z,6.53
2019-02-16T13:05:28.169Z,3.83
2019-02-16T13:08:20.704Z,7.23
2019-02-16T13:11:12.857Z,4.67
2019-02-16T13:14:08.181Z,4.70
2019-02-16T13:16:56.234Z,3.03
2019-02-16T13:19:51.533Z,2.70
2019-02-16T13:22:30.237Z,3.83
2019-02-16T13:25:06.737Z,4.07
2019-02-16T13:27:56.009Z,3.20
2019-02-16T13:30:35.966Z,3.73
2019-02-16T13:33:29.289Z,4.03
2019-02-16T13:36:17.539Z,5.63
2019-02-16T13:38:56.262Z,3.90
2019-02-16T13:41:32.965Z,3.93
2019-02-16T13:44:22.263Z,3.10
2019-02-16T13:47:11.557Z,3.30
2019-02-16T13:50:07.401Z,4.03
2019-02-16T13:52:54.130Z,4.10
2019-02-16T13:55:43.205Z,4.73
2019-02-16T13:58:32.502Z,4.23
2019-02-16T14:01:07.469Z,5.90
2019-02-16T14:03:59.556Z,4.07
2019-02-16T14:06:48.837Z,3.83
2019-02-16T14:09:50.308Z,4.17
2019-02-16T14:12:38.484Z,3.77
2019-02-16T14:15:32.485Z,3.93
2019-02-16T14:18:02.905Z,4.50
2019-02-16T14:20:33.261Z,4.00
2019-02-16T14:23:03.593Z,3.70
2019-02-16T14:25:47.724Z,4.67
2019-02-16T14:28:19.037Z,3.73
2019-02-16T14:30:49.417Z,3.17
2019-02-16T14:33:19.749Z,3.83
2019-02-16T14:35:50.130Z,4.20
2019-02-16T14:38:39.393Z,4.70
2019-02-16T14:41:09.846Z,4.73
2019-02-16T14:43:40.170Z,2.73
2019-02-16T14:46:10.520Z,3.90
2019-02-16T14:48:40.882Z,3.73
2019-02-16T14:51:11.229Z,3.93
2019-02-16T14:53:41.592Z,3.70
2019-02-16T14:56:11.933Z,5.07
2019-02-16T14:58:42.297Z,6.23
2019-02-16T15:01:12.629Z,3.80
2019-02-16T15:03:43.017Z,3.73
2019-02-16T15:06:13.341Z,3.43
2019-02-16T15:08:43.721Z,3.83
2019-02-16T15:11:14.041Z,3.63
2019-02-16T15:13:45.094Z,3.63
2019-02-16T15:16:15.642Z,2.93
2019-02-16T15:18:46.039Z,4.00
2019-02-16T15:21:16.377Z,4.60
2019-02-16T15:23:46.737Z,4.23
2019-02-16T15:26:17.107Z,5.73
2019-02-16T15:28:47.433Z,4.37
2019-02-16T15:31:17.828Z,4.93
2019-02-16T15:33:48.138Z,3.20
2019-02-16T15:36:23.864Z,3.90
2019-02-16T15:38:50.445Z,5.57
2019-02-16T15:41:21.178Z,6.17
2019-02-16T15:43:51.527Z,6.37
2019-02-16T15:46:21.897Z,6.10
2019-02-16T15:48:52.225Z,4.23
2019-02-16T15:51:22.626Z,5.43
2019-02-16T15:53:52.970Z,4.83
2019-02-16T15:56:24.400Z,5.73
2019-02-16T15:58:54.854Z,3.80
2019-02-16T16:01:25.230Z,6.03
2019-02-16T16:03:56.005Z,6.37
2019-02-16T16:06:26.378Z,3.63
2019-02-16T16:09:14.281Z,5.90
2019-02-16T16:12:02.312Z,4.77
2019-02-16T16:14:49.633Z,5.23
2019-02-16T16:17:31.321Z,3.53
2019-02-16T16:20:20.621Z,4.03
2019-02-16T16:23:09.170Z,5.13
2019-02-16T16:26:04.776Z,8.10
2019-02-16T16:29:14.041Z,6.70
2019-02-16T16:31:55.709Z,3.73
2019-02-16T16:34:52.387Z,8.30
2019-02-16T16:37:43.661Z,6.07
2019-02-16T16:40:42.213Z,7.80
2019-02-16T16:43:29.358Z,7.70
2019-02-16T16:46:13.201Z,10.93
2019-02-16T16:49:12.549Z,6.33
2019-02-16T16:52:01.843Z,8.50
2019-02-16T16:54:41.790Z,8.60
2019-02-16T16:57:22.685Z,8.47
2019-02-16T17:00:10.626Z,9.73
2019-02-16T17:03:03.188Z,9.97
2019-02-16T17:05:51.433Z,8.07
2019-02-16T17:08:46.665Z,6.97
2019-02-16T17:11:32.328Z,10.53
2019-02-16T17:14:13.405Z,10.57
2019-02-16T17:17:01.689Z,8.90
2019-02-16T17:19:38.826Z,10.20
2019-02-16T17:22:32.063Z,7.47
2019-02-16T17:25:27.582Z,9.10
2019-02-16T17:28:32.185Z,8.70
2019-02-16T17:31:27.485Z,12.13
2019-02-16T17:34:26.092Z,7.73
2019-02-16T17:37:24.204Z,8.40
2019-02-16T17:40:13.477Z,6.30
2019-02-16T17:42:58.025Z,9.30
2019-02-16T17:45:46.317Z,8.80
2019-02-16T17:48:35.601Z,9.50
2019-02-16T17:51:24.876Z,7.83
2019-02-16T17:54:14.161Z,7.93
2019-02-16T17:56:56.369Z,8.63
2019-02-16T17:59:36.753Z,5.30
2019-02-16T18:02:34.928Z,6.33
2019-02-16T18:05:27.067Z,8.30
2019-02-16T18:08:19.437Z,5.00
2019-02-16T18:11:11.733Z,5.93
2019-02-16T18:13:55.664Z,6.97
2019-02-16T18:16:57.141Z,7.33
2019-02-16T18:19:37.527Z,6.00
2019-02-16T18:22:24.049Z,8.13
2019-02-16T18:25:04.457Z,8.40
2019-02-16T18:27:54.481Z,6.33
2019-02-16T18:30:43.072Z,8.73
2019-02-16T18:33:31.033Z,13.13
2019-02-16T18:36:08.113Z,9.50
2019-02-16T18:38:57.882Z,9.13
2019-02-16T18:41:50.281Z,9.40
2019-02-16T18:44:39.580Z,9.13
2019-02-16T18:47:28.373Z,12.43
2019-02-16T18:50:17.795Z,9.50
2019-02-16T18:53:09.817Z,10.67
2019-02-16T18:55:59.139Z,9.90
2019-02-16T18:58:51.185Z,8.93
2019-02-16T19:01:58.726Z,12.10
2019-02-16T19:04:48.042Z,11.70
2019-02-16T19:07:49.313Z,10.57
2019-02-16T19:10:44.729Z,9.53
2019-02-16T19:13:46.090Z,10.47
2019-02-16T19:16:35.353Z,9.67
2019-02-16T19:19:35.697Z,10.50
2019-02-16T19:22:27.811Z,11.30
2019-02-16T19:25:07.085Z,11.23
2019-02-16T19:28:02.549Z,9.90
2019-02-16T19:30:46.809Z,11.07
2019-02-16T19:33:47.969Z,11.17
2019-02-16T19:36:29.509Z,16.93
2019-02-16T19:39:17.700Z,15.53
2019-02-16T19:41:59.884Z,19.47
2019-02-16T19:44:55.207Z,17.27
2019-02-16T19:47:44.342Z,22.07
2019-02-16T19:50:36.354Z,17.17
2019-02-16T19:53:24.720Z,19.27
2019-02-16T19:56:26.953Z,19.13
2019-02-16T19:59:16.383Z,19.70
2019-02-16T20:02:08.149Z,22.60
2019-02-16T20:04:55.073Z,23.13
2019-02-16T20:07:59.780Z,26.70
2019-02-16T20:11:07.289Z,22.77
2019-02-16T20:14:02.543Z,28.43
2019-02-16T20:16:51.812Z,28.27
2019-02-16T20:19:52.973Z,25.87
2019-02-16T20:22:57.977Z,25.23
2019-02-16T20:25:53.661Z,26.00
2019-02-16T20:28:46.253Z,24.90
2019-02-16T20:31:29.537Z,28.23
2019-02-16T20:34:08.421Z,27.17
2019-02-16T20:36:50.163Z,25.50
2019-02-16T20:39:39.785Z,25.93
2019-02-16T20:42:16.409Z,34.20
2019-02-16T20:45:00.321Z,27.23
2019-02-16T20:47:48.864Z,33.57
2019-02-16T20:50:45.787Z,31.57
2019-02-16T20:53:34.033Z,36.00
2019-02-16T20:56:18.684Z,32.07
2019-02-16T20:59:06.539Z,32.67
2019-02-16T21:02:01.661Z,31.27
2019-02-16T21:04:52.616Z,30.37
2019-02-16T21:07:41.917Z,32.73
2019-02-16T21:10:21.429Z,30.93
2019-02-16T21:13:16.577Z,31.63
2019-02-16T21:16:05.594Z,35.93
2019-02-16T21:18:50.104Z,31.63
2019-02-16T21:21:38.264Z,34.83
2019-02-16T21:24:15.637Z,30.43
2019-02-16T21:27:19.394Z,35.57
2019-02-16T21:30:00.605Z,33.20
2019-02-16T21:32:58.788Z,31.63
2019-02-16T21:35:48.117Z,29.00
2019-02-16T21:38:27.876Z,30.00
2019-02-16T21:41:13.785Z,25.53
2019-02-16T21:44:06.108Z,29.40
2019-02-16T21:46:54.686Z,27.60
2019-02-16T21:49:47.173Z,29.23
2019-02-16T21:52:45.501Z,30.47
2019-02-16T21:55:40.795Z,32.40
2019-02-16T21:58:24.873Z,27.47
2019-02-16T22:01:20.262Z,26.93
2019-02-16T22:03:56.566Z,26.30
2019-02-16T22:06:51.940Z,23.10
2019-02-16T22:09:45.240Z,23.43
2019-02-16T22:12:34.158Z,22.10
2019-02-16T22:15:05.169Z,21.50
2019-02-16T22:17:35.505Z,23.87
2019-02-16T22:20:06.236Z,26.07
2019-02-16T22:22:36.604Z,27.77
2019-02-16T22:25:07.137Z,25.97
2019-02-16T22:27:37.473Z,24.03
2019-02-16T22:30:08.745Z,27.37
2019-02-16T22:32:39.069Z,31.17
2019-02-16T22:35:09.446Z,23.80
2019-02-16T22:37:39.781Z,28.97
2019-02-16T22:40:10.637Z,25.30
2019-02-16T22:42:41.357Z,26.73
2019-02-16T22:45:11.941Z,27.07
2019-02-16T22:47:42.636Z,25.63
2019-02-16T22:50:13.965Z,25.03
2019-02-16T22:52:44.298Z,26.67
2019-02-16T22:55:14.625Z,25.40
2019-02-16T22:57:44.976Z,23.00
2019-02-16T23:00:27.727Z,29.33
2019-02-16T23:02:59.669Z,23.73
2019-02-16T23:05:30.065Z,22.47
2019-02-16T23:08:00.394Z,20.80
2019-02-16T23:10:30.745Z,24.10
2019-02-16T23:13:01.101Z,21.30
2019-02-16T23:15:31.433Z,20.40
2019-02-16T23:18:01.843Z,26.43
2019-02-16T23:20:32.165Z,22.43
2019-02-16T23:23:02.573Z,21.10
2019-02-16T23:25:32.897Z,17.47
2019-02-16T23:28:03.281Z,16.07
2019-02-16T23:30:33.693Z,15.87
2019-02-16T23:33:04.465Z,14.87
2019-02-16T23:35:34.794Z,18.40
2019-02-16T23:38:05.261Z,15.87
2019-02-16T23:40:35.601Z,18.80
2019-02-16T23:43:06.061Z,18.60
2019-02-16T23:45:36.471Z,16.87
2019-02-16T23:48:08.242Z,16.87
2019-02-16T23:50:38.573Z,20.40
2019-02-16T23:53:09.029Z,20.17
2019-02-16T23:55:39.372Z,18.67
2019-02-16T23:58:09.723Z,20.03
